Aeroporto :
LOGIN :

Iscrizione | Disclaimer

   EN    FR    IT 

 










Sommario :    VFR   VFR Marginale   IFR   IFR Intensivo   IFR Molto Intensivo
Visibilità : 
Base nubi : 
>= 8 km
>= 3000ft
5 / 8 km
1000 / 3000 ft
1500m / 5 km
500 / 1000 ft
800 / 1500m
200 / 500 ft
< 800m
< 200 ft
Simboli :   Temporali  Nebbia  Neve Forte  Precipitazioni Forti  Vento > 20 kt
SIGMETs :   Varie  Temporali  Ghiacco  Turbolenza  Onda orograficha  Ceneri Vulcaniche






- Altitudine del aeroporto : 1161 ft
- Codice IATA : RJL


LELO - Logroño-Agoncillo

ULTIMO METAR :
  • 171300Z 27009KT 9999 BKN040 09/06 Q1009

METARs OBSOLETI :
  • 171230Z 27012KT 230V290 9999 -RA BKN040 09/06 Q1009
  • 171200Z 27010KT 9999 SCT050 09/06 Q1009
  • 171130Z 28010KT 9999 SCT050 09/05 Q1009
  • 171100Z 27010KT 240V310 9999 BKN044 09/06 Q1010
  • 171030Z 28011KT 9999 BKN044 08/05 Q1011

TAF TAF LELO
Valido dal 17 a 12 ore il 17 a 21 ore UTC


171100Z 1712/1721 27012KT 9999 BKN040
PROB30
TEMPO 1714/1717 27015G25KT
PROB40
TEMPO 1712/1721 4900 RA BR BKN020



MetMap, La meteo Aeronautica in un colpo d'occhio ! - Copyright ORBIFLY Dicembre 2007 - Disclaimer

ORBIFLY MET'MAP TEAM :

Programmazione e sviluppo : Alexandra Zaïnal
Concezione e sviluppo : Baudouin d'Aumeries
Co-Programmazione e sviluppo : Marc-Olivier Méhu
Supporto tecnico e logistico : Manuel Goepfert
Aiuto per la traduzione : Arnaldo La Scala

Contatto : metmap@orbifly.com




FONTI E CREDITI :

   NOAA